createdAt,value
2018-07-27T00:02:27.224Z,52.70
2018-07-27T00:05:02.976Z,52.70
2018-07-27T00:07:38.767Z,52.70
2018-07-27T00:10:14.811Z,53.20
2018-07-27T00:12:49.196Z,53.80
2018-07-27T00:15:23.455Z,53.80
2018-07-27T00:17:59.696Z,54.10
2018-07-27T00:20:35.838Z,54.40
2018-07-27T00:23:12.344Z,54.40
2018-07-27T00:25:46.729Z,55.10
2018-07-27T00:28:21.352Z,55.30
2018-07-27T00:30:57.526Z,55.70
2018-07-27T00:33:33.491Z,55.90
2018-07-27T00:36:07.879Z,56.20
2018-07-27T00:38:43.826Z,55.90
2018-07-27T00:41:19.831Z,56.40
2018-07-27T00:43:54.471Z,57.00
2018-07-27T00:46:30.466Z,57.30
2018-07-27T00:49:04.880Z,57.40
2018-07-27T00:51:41.308Z,57.60
2018-07-27T00:54:15.935Z,57.50
2018-07-27T00:56:50.494Z,57.70
2018-07-27T00:59:24.849Z,58.00
2018-07-27T01:01:59.587Z,57.90
2018-07-27T01:04:33.958Z,58.10
2018-07-27T01:07:09.782Z,58.50
2018-07-27T01:09:44.168Z,59.10
2018-07-27T01:12:18.866Z,59.30
2018-07-27T01:14:53.672Z,59.00
2018-07-27T01:17:29.826Z,59.60
2018-07-27T01:20:06.843Z,59.70
2018-07-27T01:22:42.827Z,60.10
2018-07-27T01:25:17.705Z,60.70
2018-07-27T01:27:52.590Z,60.70
2018-07-27T01:30:28.380Z,60.90
2018-07-27T01:33:04.436Z,61.00
2018-07-27T01:35:38.856Z,61.60
2018-07-27T01:38:14.895Z,62.10
2018-07-27T01:40:51.182Z,62.10
2018-07-27T01:43:26.810Z,61.50
2018-07-27T01:46:01.143Z,61.20
2018-07-27T01:48:35.517Z,62.10
2018-07-27T01:51:11.598Z,62.30
2018-07-27T01:53:47.281Z,63.00
2018-07-27T01:56:22.951Z,63.40
2018-07-27T01:58:57.285Z,63.90
2018-07-27T02:01:32.151Z,64.10
2018-07-27T02:04:07.635Z,64.10
2018-07-27T02:06:44.000Z,64.10
2018-07-27T02:09:18.539Z,64.30
2018-07-27T02:11:53.463Z,64.10
2018-07-27T02:14:27.987Z,64.50
2018-07-27T02:17:09.987Z,64.10
2018-07-27T02:22:22.019Z,65.20
2018-07-27T02:24:56.318Z,65.70
2018-07-27T02:27:31.040Z,65.60
2018-07-27T02:30:06.955Z,65.80
2018-07-27T02:32:46.452Z,66.30
2018-07-27T02:35:21.152Z,66.30
2018-07-27T02:37:57.134Z,66.40
2018-07-27T02:40:32.946Z,66.90
2018-07-27T02:43:08.527Z,66.90
2018-07-27T02:45:42.997Z,66.20
2018-07-27T02:48:17.520Z,66.50
2018-07-27T02:50:53.951Z,67.20
2018-07-27T02:53:30.013Z,67.40
2018-07-27T02:58:40.077Z,68.40
2018-07-27T03:01:14.475Z,68.40
2018-07-27T03:03:49.239Z,69.20
2018-07-27T03:06:24.942Z,69.70
2018-07-27T03:09:00.733Z,70.00
2018-07-27T03:11:35.023Z,70.50
2018-07-27T03:14:09.655Z,70.90
2018-07-27T03:16:44.075Z,71.80
2018-07-27T03:19:20.001Z,71.60
2018-07-27T03:21:54.440Z,72.10
2018-07-27T03:24:28.863Z,72.70
2018-07-27T03:27:03.296Z,73.20
2018-07-27T03:29:48.079Z,73.30
2018-07-27T03:32:22.976Z,73.50
2018-07-27T03:34:58.895Z,73.30
2018-07-27T03:37:34.931Z,73.50
2018-07-27T03:40:11.005Z,73.70
2018-07-27T03:42:47.256Z,74.00
2018-07-27T03:45:21.619Z,74.20
2018-07-27T03:47:56.092Z,74.60
2018-07-27T03:50:31.955Z,74.90
2018-07-27T03:53:08.453Z,75.40
2018-07-27T03:55:42.870Z,75.90
2018-07-27T03:58:17.363Z,76.10
2018-07-27T04:01:02.586Z,76.60
2018-07-27T04:03:37.055Z,76.80
2018-07-27T04:06:11.513Z,76.90
2018-07-27T04:08:47.131Z,76.90
2018-07-27T04:11:21.764Z,77.50
2018-07-27T04:13:56.167Z,77.60
2018-07-27T04:16:30.635Z,77.20
2018-07-27T04:19:15.646Z,77.80
2018-07-27T04:21:50.088Z,78.10
2018-07-27T04:24:24.627Z,78.80
2018-07-27T04:26:58.943Z,78.90
2018-07-27T04:29:34.377Z,79.20
2018-07-27T04:32:10.144Z,79.50
2018-07-27T04:34:45.885Z,79.70
2018-07-27T04:37:22.080Z,79.50
2018-07-27T04:39:58.226Z,79.70
2018-07-27T04:42:34.270Z,79.20
2018-07-27T04:45:09.830Z,78.40
2018-07-27T04:47:44.170Z,78.60
2018-07-27T04:50:18.592Z,78.50
2018-07-27T04:52:55.330Z,78.40
2018-07-27T04:55:29.774Z,78.40
2018-07-27T05:00:38.677Z,77.40
2018-07-27T05:03:14.351Z,77.10
2018-07-27T05:05:48.642Z,74.40
2018-07-27T05:08:24.722Z,74.30
2018-07-27T05:10:59.236Z,74.80
2018-07-27T05:13:33.648Z,75.50
2018-07-27T05:16:09.340Z,76.00
2018-07-27T05:18:45.451Z,75.70
2018-07-27T05:21:21.758Z,75.00
2018-07-27T05:23:57.513Z,74.90
2018-07-27T05:26:31.923Z,74.40
2018-07-27T05:29:08.419Z,72.90
2018-07-27T05:31:44.260Z,72.90
2018-07-27T05:34:20.212Z,72.50
2018-07-27T05:36:54.635Z,72.00
2018-07-27T05:39:30.700Z,71.00
2018-07-27T05:42:06.695Z,71.30
2018-07-27T05:44:41.006Z,70.90
2018-07-27T05:47:15.507Z,70.20
2018-07-27T05:49:51.038Z,69.00
2018-07-27T05:52:28.770Z,69.00
2018-07-27T05:55:04.487Z,69.20
2018-07-27T05:57:38.725Z,68.80
2018-07-27T06:00:13.232Z,69.10
2018-07-27T06:02:49.144Z,68.90
2018-07-27T06:05:24.939Z,68.20
2018-07-27T06:08:00.995Z,67.30
2018-07-27T06:10:35.398Z,66.70
2018-07-27T06:13:09.939Z,66.90
2018-07-27T06:15:44.695Z,67.00
2018-07-27T06:18:20.374Z,67.30
2018-07-27T06:20:56.628Z,67.80
2018-07-27T06:23:32.231Z,67.50
2018-07-27T06:26:06.676Z,67.00
2018-07-27T06:28:42.618Z,66.90
2018-07-27T06:31:19.258Z,66.50
2018-07-27T06:33:55.346Z,65.60
2018-07-27T06:36:29.799Z,65.30
2018-07-27T06:39:08.168Z,65.20
2018-07-27T06:41:44.251Z,63.80
2018-07-27T06:44:20.953Z,63.80
2018-07-27T06:46:55.230Z,63.20
2018-07-27T06:49:31.095Z,62.20
2018-07-27T06:55:11.775Z,60.00
2018-07-27T06:57:46.263Z,60.80
2018-07-27T07:00:21.775Z,62.00
2018-07-27T07:02:59.183Z,61.70
2018-07-27T07:05:34.968Z,61.40
2018-07-27T07:08:12.023Z,61.70
2018-07-27T07:10:50.599Z,60.00
2018-07-27T07:13:24.808Z,59.50
2018-07-27T07:15:59.574Z,59.80
2018-07-27T07:18:35.714Z,60.80
2018-07-27T07:21:11.805Z,61.80
2018-07-27T07:23:46.232Z,61.00
2018-07-27T07:26:20.631Z,61.90
2018-07-27T07:28:56.684Z,62.30
2018-07-27T07:31:31.202Z,61.10
2018-07-27T07:39:51.167Z,60.00
2018-07-27T07:42:26.823Z,60.90
2018-07-27T07:45:03.892Z,62.10
2018-07-27T07:50:39.343Z,61.60
2018-07-27T07:53:15.180Z,61.00
2018-07-27T07:55:49.672Z,60.10
2018-07-27T07:58:24.020Z,59.50
2018-07-27T08:00:59.967Z,59.20
2018-07-27T08:06:38.227Z,57.60
2018-07-27T08:09:21.748Z,58.00
2018-07-27T08:11:57.211Z,57.80
2018-07-27T08:14:33.051Z,58.00
2018-07-27T08:17:20.706Z,57.00
2018-07-27T08:19:56.743Z,57.10
2018-07-27T08:22:32.295Z,58.10
2018-07-27T08:25:06.938Z,60.20
2018-07-27T08:27:43.069Z,61.40
2018-07-27T08:30:18.629Z,61.30
2018-07-27T08:32:54.582Z,60.40
2018-07-27T08:35:29.119Z,59.30
2018-07-27T08:40:47.747Z,58.40
2018-07-27T08:43:22.196Z,57.70
2018-07-27T08:45:56.655Z,57.50
2018-07-27T08:48:30.974Z,56.70
2018-07-27T08:51:05.347Z,57.20
2018-07-27T08:53:41.274Z,57.20
2018-07-27T08:56:17.326Z,56.70
2018-07-27T08:58:52.369Z,56.00
2018-07-27T09:01:26.934Z,54.90
2018-07-27T09:04:01.334Z,55.00
2018-07-27T09:06:37.255Z,54.40
2018-07-27T09:09:14.341Z,54.30
2018-07-27T09:11:48.871Z,54.10
2018-07-27T09:17:00.107Z,54.90
2018-07-27T09:19:36.398Z,54.80
2018-07-27T09:22:10.575Z,53.90
2018-07-27T09:24:46.741Z,54.10
2018-07-27T10:49:27.236Z,52.90
2018-07-27T10:52:01.803Z,46.20
2018-07-27T10:54:37.891Z,46.40
2018-07-27T10:57:12.383Z,46.40
2018-07-27T10:59:46.774Z,44.80
2018-07-27T11:02:21.482Z,45.30
2018-07-27T11:04:55.850Z,45.70
2018-07-27T11:07:30.537Z,45.10
2018-07-27T11:10:06.893Z,45.00
2018-07-27T11:12:41.415Z,45.60
2018-07-27T11:15:15.768Z,45.50
2018-07-27T11:17:51.559Z,44.30
2018-07-27T11:20:27.150Z,45.30
2018-07-27T11:23:01.649Z,45.30
2018-07-27T11:25:36.005Z,44.70
2018-07-27T11:28:11.547Z,43.30
2018-07-27T11:30:47.366Z,42.80
2018-07-27T11:33:23.536Z,43.50
2018-07-27T11:35:57.942Z,43.70
2018-07-27T11:38:32.549Z,44.10
2018-07-27T11:41:08.676Z,44.00
2018-07-27T11:43:43.003Z,43.90
2018-07-27T11:46:17.434Z,43.70
2018-07-27T11:48:54.020Z,43.40
2018-07-27T11:51:28.419Z,43.00
2018-07-27T11:54:04.019Z,43.30
2018-07-27T11:56:38.676Z,46.40
2018-07-27T11:59:13.259Z,49.40
2018-07-27T12:01:48.053Z,53.40
2018-07-27T12:04:22.351Z,55.40
2018-07-27T12:06:58.322Z,56.20
2018-07-27T12:09:35.669Z,57.20
2018-07-27T12:15:17.133Z,55.70
2018-07-27T12:17:54.130Z,56.40
2018-07-27T12:20:35.783Z,54.10
2018-07-27T12:35:27.533Z,44.20
2018-07-27T12:38:02.115Z,43.30
2018-07-27T12:43:14.738Z,42.80
2018-07-27T12:45:49.043Z,42.70
2018-07-27T12:48:32.030Z,43.80
2018-07-27T12:51:06.485Z,45.10
2018-07-27T12:53:41.971Z,45.60
2018-07-27T12:56:24.701Z,45.60
2018-07-27T13:01:59.860Z,44.30
2018-07-27T13:04:51.914Z,43.60
2018-07-27T13:07:27.790Z,43.60
2018-07-27T13:10:06.591Z,43.00
2018-07-27T13:12:45.208Z,45.20
2018-07-27T13:15:27.076Z,49.00
2018-07-27T13:18:08.153Z,51.10
2018-07-27T13:25:21.838Z,52.60
2018-07-27T13:28:00.591Z,52.30
2018-07-27T13:30:36.251Z,52.40
2018-07-27T13:33:12.411Z,52.00
2018-07-27T13:35:48.473Z,51.80
2018-07-27T13:38:22.981Z,52.70
2018-07-27T13:40:58.912Z,52.30
2018-07-27T13:43:33.640Z,51.90
2018-07-27T13:46:08.099Z,52.00
2018-07-27T13:48:42.766Z,51.00
2018-07-27T13:51:17.184Z,50.10
2018-07-27T13:53:53.120Z,49.60
2018-07-27T13:56:27.447Z,49.60
2018-07-27T13:59:01.979Z,47.90
2018-07-27T14:01:36.396Z,47.00
2018-07-27T14:04:10.842Z,47.40
2018-07-27T14:06:48.919Z,48.00
2018-07-27T14:09:24.990Z,49.30
2018-07-27T14:12:02.499Z,49.40
2018-07-27T14:14:36.915Z,50.50
2018-07-27T14:17:11.356Z,50.30
2018-07-27T14:19:48.182Z,50.30
2018-07-27T14:22:22.728Z,50.70
2018-07-27T14:24:59.375Z,46.90
2018-07-27T14:27:35.266Z,47.00
2018-07-27T14:30:10.933Z,46.30
2018-07-27T14:32:46.843Z,46.40
2018-07-27T14:35:22.835Z,46.60
2018-07-27T14:37:57.299Z,46.40
2018-07-27T14:40:36.872Z,47.10
2018-07-27T14:43:11.441Z,46.70
2018-07-27T14:45:46.672Z,46.70
2018-07-27T14:48:22.981Z,45.40
2018-07-27T14:50:57.470Z,45.80
2018-07-27T14:53:34.175Z,45.20
2018-07-27T14:56:08.719Z,46.80
2018-07-27T14:58:43.640Z,43.10
2018-07-27T15:01:18.087Z,44.30
2018-07-27T15:03:52.449Z,43.70
2018-07-27T15:06:27.332Z,45.60
2018-07-27T15:09:02.893Z,43.40
2018-07-27T15:11:38.934Z,42.60
2018-07-27T15:14:13.775Z,43.50
2018-07-27T15:16:48.095Z,43.00
2018-07-27T15:19:24.259Z,43.80
2018-07-27T15:21:59.486Z,43.50
2018-07-27T15:24:35.038Z,42.80
2018-07-27T15:27:11.046Z,41.60
2018-07-27T15:29:47.060Z,43.30
2018-07-27T15:32:23.258Z,42.30
2018-07-27T15:34:59.195Z,42.00
2018-07-27T15:37:33.834Z,41.80
2018-07-27T15:40:09.807Z,41.20
2018-07-27T15:42:44.170Z,43.20
2018-07-27T15:45:18.928Z,42.20
2018-07-27T15:47:53.229Z,41.90
2018-07-27T15:50:28.703Z,41.60
2018-07-27T15:53:04.732Z,40.60
2018-07-27T15:58:13.590Z,40.30
2018-07-27T16:00:48.323Z,39.20
2018-07-27T16:03:22.751Z,41.60
2018-07-27T16:05:57.383Z,40.90
2018-07-27T16:08:33.103Z,42.30
2018-07-27T16:11:07.543Z,42.20
2018-07-27T16:13:43.719Z,39.90
2018-07-27T16:16:18.203Z,42.00
2018-07-27T16:18:54.167Z,40.10
2018-07-27T16:21:30.230Z,41.50
2018-07-27T16:24:05.864Z,39.70
2018-07-27T16:26:47.891Z,39.60
2018-07-27T16:29:42.611Z,40.00
2018-07-27T16:32:17.623Z,40.20
2018-07-27T16:34:53.425Z,37.60
2018-07-27T16:37:27.727Z,38.70
2018-07-27T16:40:03.662Z,40.40
2018-07-27T16:42:37.927Z,40.00
2018-07-27T16:45:12.411Z,40.10
2018-07-27T16:47:48.331Z,39.70
2018-07-27T16:50:22.727Z,36.70
2018-07-27T16:52:58.756Z,36.90
2018-07-27T16:55:33.258Z,36.00
2018-07-27T16:58:07.683Z,39.20
2018-07-27T17:00:42.196Z,39.40
2018-07-27T17:03:16.378Z,39.20
2018-07-27T17:05:53.191Z,39.30
2018-07-27T17:11:03.346Z,36.10
2018-07-27T17:13:39.307Z,37.30
2018-07-27T17:17:43.348Z,37.80
2018-07-27T17:20:19.490Z,37.50
2018-07-27T17:22:53.997Z,38.70
2018-07-27T17:25:29.598Z,39.30
2018-07-27T17:28:05.335Z,39.00
2018-07-27T17:30:40.099Z,38.10
2018-07-27T17:33:16.221Z,38.60
2018-07-27T17:35:51.762Z,38.00
2018-07-27T17:38:26.141Z,38.00
2018-07-27T17:43:36.082Z,38.40
2018-07-27T17:46:10.390Z,38.80
2018-07-27T17:51:22.706Z,37.70
2018-07-27T17:53:58.039Z,39.30
2018-07-27T17:59:30.104Z,38.90
2018-07-27T18:02:06.024Z,38.40
2018-07-27T18:04:42.851Z,38.40
2018-07-27T18:07:17.867Z,39.80
2018-07-27T18:09:53.804Z,39.50
2018-07-27T18:15:32.518Z,39.40
2018-07-27T18:18:08.576Z,39.50
2018-07-27T18:20:44.491Z,39.60
2018-07-27T18:23:18.955Z,39.70
2018-07-27T18:25:55.086Z,39.60
2018-07-27T18:28:30.966Z,40.00
2018-07-27T18:31:06.803Z,39.60
2018-07-27T18:33:42.979Z,39.60
2018-07-27T18:36:17.520Z,39.70
2018-07-27T18:38:51.941Z,40.00
2018-07-27T18:41:27.978Z,39.90
2018-07-27T18:44:02.421Z,40.20
2018-07-27T18:46:37.819Z,40.40
2018-07-27T18:49:23.335Z,41.00
2018-07-27T18:52:00.133Z,41.10
2018-07-27T18:54:35.760Z,40.90
2018-07-27T18:57:11.703Z,40.70
2018-07-27T18:59:47.360Z,41.10
2018-07-27T19:02:22.899Z,41.60
2018-07-27T19:04:58.347Z,42.00
2018-07-27T19:07:32.939Z,42.60
2018-07-27T19:10:07.840Z,42.90
2018-07-27T19:12:42.670Z,42.80
2018-07-27T19:15:17.125Z,43.50
2018-07-27T19:17:52.931Z,44.00
2018-07-27T19:20:29.883Z,44.70
2018-07-27T19:23:04.311Z,45.30
2018-07-27T19:25:40.835Z,46.10
2018-07-27T19:28:16.591Z,46.40
2018-07-27T19:30:52.834Z,46.60
2018-07-27T19:33:27.274Z,47.20
2018-07-27T19:36:02.024Z,48.40
2018-07-27T19:38:36.467Z,48.30
2018-07-27T19:41:12.423Z,48.30
2018-07-27T19:43:46.816Z,48.70
2018-07-27T19:46:21.355Z,49.00
2018-07-27T19:48:55.579Z,50.10
2018-07-27T19:51:30.326Z,50.60
2018-07-27T19:54:06.588Z,51.00
2018-07-27T19:56:41.252Z,51.90
2018-07-27T19:59:16.807Z,52.20
2018-07-27T20:01:51.595Z,52.40
2018-07-27T20:04:26.029Z,53.10
2018-07-27T20:07:00.434Z,53.50
2018-07-27T20:09:34.904Z,53.80
2018-07-27T20:12:09.437Z,54.10
2018-07-27T20:14:43.724Z,54.30
2018-07-27T20:17:18.330Z,54.40
2018-07-27T20:19:54.348Z,54.80
2018-07-27T20:22:29.215Z,55.00
2018-07-27T20:25:06.208Z,55.60
2018-07-27T20:27:41.772Z,55.90
2018-07-27T20:30:17.183Z,56.20
2018-07-27T20:32:51.577Z,55.90
2018-07-27T20:35:25.983Z,55.30
2018-07-27T20:38:00.455Z,55.80
2018-07-27T20:40:36.405Z,56.50
2018-07-27T20:43:12.191Z,56.70
2018-07-27T20:45:46.631Z,57.00
2018-07-27T20:48:22.644Z,56.80
2018-07-27T20:50:57.083Z,57.00
2018-07-27T20:53:33.135Z,57.10
2018-07-27T20:56:08.976Z,57.20
2018-07-27T20:58:43.619Z,57.00
2018-07-27T21:01:18.054Z,57.20
2018-07-27T21:03:52.679Z,57.40
2018-07-27T21:06:27.200Z,57.80
2018-07-27T21:09:02.142Z,57.70
2018-07-27T21:11:36.618Z,57.50
2018-07-27T21:14:11.175Z,57.30
2018-07-27T21:16:45.510Z,58.00
2018-07-27T21:19:22.268Z,57.80
2018-07-27T21:21:56.961Z,57.40
2018-07-27T21:24:32.456Z,57.20
2018-07-27T21:27:08.391Z,57.50
2018-07-27T21:29:43.886Z,58.00
2018-07-27T21:32:18.471Z,57.70
2018-07-27T21:34:52.784Z,57.60
2018-07-27T21:37:27.204Z,58.20
2018-07-27T21:40:11.443Z,58.70
2018-07-27T21:42:47.551Z,58.80
2018-07-27T21:45:21.975Z,59.20
2018-07-27T21:47:56.764Z,59.40
2018-07-27T21:50:31.177Z,59.30
2018-07-27T21:53:07.018Z,59.40
2018-07-27T21:55:41.448Z,59.20
2018-07-27T21:58:16.209Z,58.80
2018-07-27T22:00:50.555Z,58.70
2018-07-27T22:03:24.950Z,59.30
2018-07-27T22:05:59.877Z,59.60
2018-07-27T22:08:34.441Z,59.90
2018-07-27T22:11:09.107Z,59.80
2018-07-27T22:13:43.656Z,59.90
2018-07-27T22:16:18.292Z,59.70
2018-07-27T22:18:54.333Z,59.70
2018-07-27T22:21:30.376Z,59.50
2018-07-27T22:24:06.083Z,59.90
2018-07-27T22:26:48.675Z,60.40
2018-07-27T22:29:24.304Z,60.70
2018-07-27T22:31:58.691Z,60.70
2018-07-27T22:34:34.780Z,60.90
2018-07-27T22:37:09.102Z,61.20
2018-07-27T22:39:44.897Z,61.30
2018-07-27T22:42:20.938Z,61.50
2018-07-27T22:44:55.383Z,61.70
2018-07-27T22:47:30.200Z,61.80
2018-07-27T22:50:05.385Z,62.10
2018-07-27T22:52:46.375Z,61.80
2018-07-27T22:55:20.919Z,62.00
2018-07-27T22:57:55.734Z,62.10
2018-07-27T23:00:30.184Z,62.40
2018-07-27T23:03:05.008Z,62.70
2018-07-27T23:05:48.763Z,62.90
2018-07-27T23:08:23.335Z,63.30
2018-07-27T23:10:57.659Z,63.60
2018-07-27T23:13:32.116Z,64.10
2018-07-27T23:16:06.416Z,64.40
2018-07-27T23:18:42.777Z,64.80
2018-07-27T23:21:18.568Z,65.60
2018-07-27T23:23:54.691Z,66.10
2018-07-27T23:26:30.643Z,66.80
2018-07-27T23:29:06.300Z,67.40
2018-07-27T23:31:40.742Z,67.40
2018-07-27T23:34:15.152Z,68.70
2018-07-27T23:36:49.475Z,69.40
2018-07-27T23:39:24.009Z,69.40
2018-07-27T23:42:00.041Z,69.00
2018-07-27T23:44:35.716Z,68.60
2018-07-27T23:47:10.162Z,68.90
2018-07-27T23:49:45.667Z,69.10
2018-07-27T23:52:29.498Z,69.60
2018-07-27T23:55:05.739Z,69.80
2018-07-27T23:57:40.644Z,70.30
